sensor_id;sensor_type;location;lat;lon;timestamp;pressure;altitude;pressure_sealevel;temperature;humidity
75221;BME280;63802;53.232;6.570;2023-06-14T00:01:31;101868.13;;;15.00;82.63
75221;BME280;63802;53.232;6.570;2023-06-14T00:04:00;101866.09;;;14.97;84.08
75221;BME280;63802;53.232;6.570;2023-06-14T00:06:26;101871.97;;;14.96;84.61
75221;BME280;63802;53.232;6.570;2023-06-14T00:08:52;101864.75;;;14.88;85.50
75221;BME280;63802;53.232;6.570;2023-06-14T00:11:19;101865.84;;;14.83;86.09
75221;BME280;63802;53.232;6.570;2023-06-14T00:13:45;101868.53;;;14.80;87.36
75221;BME280;63802;53.232;6.570;2023-06-14T00:16:10;101867.38;;;14.81;88.20
75221;BME280;63802;53.232;6.570;2023-06-14T00:18:36;101857.44;;;14.72;88.67
75221;BME280;63802;53.232;6.570;2023-06-14T00:21:02;101867.19;;;14.70;89.74
75221;BME280;63802;53.232;6.570;2023-06-14T00:23:29;101865.97;;;14.67;90.21
75221;BME280;63802;53.232;6.570;2023-06-14T00:25:54;101869.00;;;14.62;91.31
75221;BME280;63802;53.232;6.570;2023-06-14T00:28:20;101866.97;;;14.59;92.32
75221;BME280;63802;53.232;6.570;2023-06-14T00:30:45;101873.56;;;14.55;93.16
75221;BME280;63802;53.232;6.570;2023-06-14T00:33:12;101869.97;;;14.51;93.66
75221;BME280;63802;53.232;6.570;2023-06-14T00:35:37;101870.63;;;14.44;94.22
75221;BME280;63802;53.232;6.570;2023-06-14T00:38:03;101875.75;;;14.46;95.49
75221;BME280;63802;53.232;6.570;2023-06-14T00:40:29;101872.59;;;14.44;96.32
75221;BME280;63802;53.232;6.570;2023-06-14T00:42:54;101877.19;;;14.40;97.12
75221;BME280;63802;53.232;6.570;2023-06-14T00:45:20;101875.97;;;14.37;97.81
75221;BME280;63802;53.232;6.570;2023-06-14T00:47:46;101871.66;;;14.36;98.71
75221;BME280;63802;53.232;6.570;2023-06-14T00:50:12;101875.09;;;14.33;99.42
75221;BME280;63802;53.232;6.570;2023-06-14T00:52:39;101878.56;;;14.30;99.82
75221;BME280;63802;53.232;6.570;2023-06-14T00:55:05;101881.66;;;14.29;100.00
75221;BME280;63802;53.232;6.570;2023-06-14T00:57:31;101876.53;;;14.27;100.00
75221;BME280;63802;53.232;6.570;2023-06-14T00:59:56;101880.81;;;14.25;100.00
75221;BME280;63802;53.232;6.570;2023-06-14T01:02:22;101873.19;;;14.18;100.00
75221;BME280;63802;53.232;6.570;2023-06-14T01:04:48;101874.38;;;14.17;100.00
75221;BME280;63802;53.232;6.570;2023-06-14T01:12:44;101874.56;;;14.08;100.00
75221;BME280;63802;53.232;6.570;2023-06-14T01:15:13;101868.63;;;14.06;100.00
75221;BME280;63802;53.232;6.570;2023-06-14T01:17:39;101877.25;;;14.05;100.00
75221;BME280;63802;53.232;6.570;2023-06-14T01:20:07;101875.66;;;14.04;100.00
75221;BME280;63802;53.232;6.570;2023-06-14T01:22:35;101869.66;;;13.98;100.00
75221;BME280;63802;53.232;6.570;2023-06-14T01:25:01;101863.66;;;13.93;100.00
75221;BME280;63802;53.232;6.570;2023-06-14T01:27:26;101873.91;;;13.96;100.00
75221;BME280;63802;53.232;6.570;2023-06-14T01:29:55;101871.44;;;13.91;100.00
75221;BME280;63802;53.232;6.570;2023-06-14T01:32:24;101861.13;;;13.84;100.00
75221;BME280;63802;53.232;6.570;2023-06-14T01:34:50;101868.13;;;13.82;100.00
75221;BME280;63802;53.232;6.570;2023-06-14T01:37:15;101860.59;;;13.79;100.00
75221;BME280;63802;53.232;6.570;2023-06-14T01:39:43;101869.69;;;13.83;100.00
75221;BME280;63802;53.232;6.570;2023-06-14T01:42:09;101873.09;;;13.76;100.00
75221;BME280;63802;53.232;6.570;2023-06-14T01:44:36;101866.28;;;13.70;100.00
75221;BME280;63802;53.232;6.570;2023-06-14T01:47:02;101871.00;;;13.70;100.00
75221;BME280;63802;53.232;6.570;2023-06-14T01:49:28;101863.75;;;13.62;100.00
75221;BME280;63802;53.232;6.570;2023-06-14T01:51:53;101880.19;;;13.62;100.00
75221;BME280;63802;53.232;6.570;2023-06-14T01:54:19;101877.81;;;13.60;100.00
75221;BME280;63802;53.232;6.570;2023-06-14T01:56:44;101877.81;;;13.60;100.00
75221;BME280;63802;53.232;6.570;2023-06-14T01:59:10;101877.72;;;13.57;100.00
75221;BME280;63802;53.232;6.570;2023-06-14T02:01:35;101877.72;;;13.57;100.00
75221;BME280;63802;53.232;6.570;2023-06-14T02:04:01;101876.13;;;13.56;100.00
75221;BME280;63802;53.232;6.570;2023-06-14T02:06:27;101877.72;;;13.57;100.00
75221;BME280;63802;53.232;6.570;2023-06-14T02:08:53;101881.19;;;13.54;100.00
75221;BME280;63802;53.232;6.570;2023-06-14T02:11:18;101880.75;;;13.52;100.00
75221;BME280;63802;53.232;6.570;2023-06-14T02:13:44;101882.19;;;13.46;100.00
75221;BME280;63802;53.232;6.570;2023-06-14T02:16:10;101879.88;;;13.48;100.00
75221;BME280;63802;53.232;6.570;2023-06-14T02:18:36;101882.19;;;13.46;100.00
75221;BME280;63802;53.232;6.570;2023-06-14T02:21:01;101876.97;;;13.40;100.00
75221;BME280;63802;53.232;6.570;2023-06-14T02:23:26;101880.41;;;13.37;100.00
75221;BME280;63802;53.232;6.570;2023-06-14T02:25:52;101876.00;;;13.33;100.00
75221;BME280;63802;53.232;6.570;2023-06-14T02:28:17;101871.56;;;13.28;100.00
75221;BME280;63802;53.232;6.570;2023-06-14T02:30:42;101873.16;;;13.29;100.00
75221;BME280;63802;53.232;6.570;2023-06-14T02:33:08;101876.19;;;13.24;100.00
75221;BME280;63802;53.232;6.570;2023-06-14T02:35:37;101881.69;;;13.24;100.00
75221;BME280;63802;53.232;6.570;2023-06-14T02:38:02;101880.13;;;13.27;100.00
75221;BME280;63802;53.232;6.570;2023-06-14T02:40:28;101874.66;;;13.27;100.00
75221;BME280;63802;53.232;6.570;2023-06-14T02:42:53;101877.06;;;13.28;100.00
75221;BME280;63802;53.232;6.570;2023-06-14T02:45:18;101872.91;;;13.19;100.00
75221;BME280;63802;53.232;6.570;2023-06-14T02:47:46;101866.63;;;13.18;100.00
75221;BME280;63802;53.232;6.570;2023-06-14T02:50:11;101877.16;;;13.16;100.00
75221;BME280;63802;53.232;6.570;2023-06-14T02:52:36;101875.81;;;13.10;100.00
75221;BME280;63802;53.232;6.570;2023-06-14T02:55:02;101888.38;;;13.11;100.00
75221;BME280;63802;53.232;6.570;2023-06-14T02:57:27;101886.78;;;13.10;100.00
75221;BME280;63802;53.232;6.570;2023-06-14T02:59:53;101896.50;;;13.08;100.00
75221;BME280;63802;53.232;6.570;2023-06-14T03:02:18;101890.47;;;13.02;100.00
75221;BME280;63802;53.232;6.570;2023-06-14T03:04:43;101891.28;;;13.03;100.00
75221;BME280;63802;53.232;6.570;2023-06-14T03:07:10;101896.84;;;13.06;100.00
75221;BME280;63802;53.232;6.570;2023-06-14T03:09:36;101901.53;;;13.06;100.00
75221;BME280;63802;53.232;6.570;2023-06-14T03:12:05;101902.34;;;13.06;100.00
75221;BME280;63802;53.232;6.570;2023-06-14T03:14:32;101902.69;;;13.05;100.00
75221;BME280;63802;53.232;6.570;2023-06-14T03:16:58;101903.00;;;13.03;100.00
75221;BME280;63802;53.232;6.570;2023-06-14T03:19:24;101898.25;;;13.00;100.00
75221;BME280;63802;53.232;6.570;2023-06-14T03:21:51;101911.97;;;13.00;100.00
75221;BME280;63802;53.232;6.570;2023-06-14T03:24:17;101911.97;;;13.00;100.00
75221;BME280;63802;53.232;6.570;2023-06-14T03:26:42;101916.97;;;12.98;100.00
75221;BME280;63802;53.232;6.570;2023-06-14T03:29:08;101915.38;;;12.97;100.00
75221;BME280;63802;53.232;6.570;2023-06-14T03:31:34;101921.06;;;13.04;100.00
75221;BME280;63802;53.232;6.570;2023-06-14T03:34:01;101918.41;;;13.08;100.00
75221;BME280;63802;53.232;6.570;2023-06-14T03:36:26;101914.97;;;13.11;100.00
75221;BME280;63802;53.232;6.570;2023-06-14T03:38:53;101921.00;;;13.16;100.00
75221;BME280;63802;53.232;6.570;2023-06-14T03:41:18;101915.16;;;13.18;100.00
75221;BME280;63802;53.232;6.570;2023-06-14T03:43:44;101922.06;;;13.27;100.00
75221;BME280;63802;53.232;6.570;2023-06-14T03:46:09;101922.97;;;13.31;100.00
75221;BME280;63802;53.232;6.570;2023-06-14T03:48:35;101912.44;;;13.33;100.00
75221;BME280;63802;53.232;6.570;2023-06-14T03:51:00;101920.56;;;13.46;100.00
75221;BME280;63802;53.232;6.570;2023-06-14T03:53:26;101919.25;;;13.55;100.00
75221;BME280;63802;53.232;6.570;2023-06-14T03:55:53;101923.91;;;13.55;100.00
75221;BME280;63802;53.232;6.570;2023-06-14T03:58:19;101929.56;;;13.62;100.00
75221;BME280;63802;53.232;6.570;2023-06-14T04:00:45;101937.53;;;13.67;100.00
75221;BME280;63802;53.232;6.570;2023-06-14T04:03:10;101931.34;;;13.70;100.00
75221;BME280;63802;53.232;6.570;2023-06-14T04:05:38;101939.81;;;13.80;100.00
75221;BME280;63802;53.232;6.570;2023-06-14T04:08:07;101941.03;;;13.83;100.00
75221;BME280;63802;53.232;6.570;2023-06-14T04:10:34;101936.41;;;13.87;100.00
75221;BME280;63802;53.232;6.570;2023-06-14T04:12:59;101944.84;;;13.94;100.00
75221;BME280;63802;53.232;6.570;2023-06-14T04:15:24;101942.25;;;14.01;100.00
75221;BME280;63802;53.232;6.570;2023-06-14T04:17:50;101944.53;;;13.99;100.00
75221;BME280;63802;53.232;6.570;2023-06-14T04:20:16;101947.00;;;14.04;100.00
75221;BME280;63802;53.232;6.570;2023-06-14T04:22:42;101947.53;;;14.09;100.00
75221;BME280;63802;53.232;6.570;2023-06-14T04:25:08;101962.22;;;14.17;100.00
75221;BME280;63802;53.232;6.570;2023-06-14T04:27:34;101958.03;;;14.23;100.00
75221;BME280;63802;53.232;6.570;2023-06-14T04:30:01;101961.66;;;14.27;100.00
75221;BME280;63802;53.232;6.570;2023-06-14T04:32:27;101970.09;;;14.34;100.00
75221;BME280;63802;53.232;6.570;2023-06-14T04:34:55;101965.81;;;14.37;100.00
75221;BME280;63802;53.232;6.570;2023-06-14T04:37:21;101966.81;;;14.48;100.00
75221;BME280;63802;53.232;6.570;2023-06-14T04:39:48;101967.78;;;14.55;100.00
75221;BME280;63802;53.232;6.570;2023-06-14T04:42:13;101975.88;;;14.67;100.00
75221;BME280;63802;53.232;6.570;2023-06-14T04:44:42;101974.41;;;14.73;100.00
75221;BME280;63802;53.232;6.570;2023-06-14T04:47:09;101976.88;;;14.78;100.00
75221;BME280;63802;53.232;6.570;2023-06-14T04:49:34;101971.50;;;14.86;100.00
75221;BME280;63802;53.232;6.570;2023-06-14T04:52:00;101984.38;;;15.01;100.00
75221;BME280;63802;53.232;6.570;2023-06-14T04:54:27;101989.00;;;15.16;100.00
75221;BME280;63802;53.232;6.570;2023-06-14T04:56:53;101978.16;;;15.26;100.00
75221;BME280;63802;53.232;6.570;2023-06-14T04:59:21;101987.22;;;15.27;100.00
75221;BME280;63802;53.232;6.570;2023-06-14T05:01:48;101979.09;;;15.34;100.00
75221;BME280;63802;53.232;6.570;2023-06-14T05:04:15;101981.38;;;15.51;100.00
75221;BME280;63802;53.232;6.570;2023-06-14T05:06:41;101987.53;;;15.67;100.00
75221;BME280;63802;53.232;6.570;2023-06-14T05:09:07;101985.66;;;15.71;100.00
75221;BME280;63802;53.232;6.570;2023-06-14T05:11:32;101994.88;;;15.82;100.00
75221;BME280;63802;53.232;6.570;2023-06-14T05:13:57;101991.50;;;15.92;100.00
75221;BME280;63802;53.232;6.570;2023-06-14T05:16:23;101995.94;;;16.00;100.00
75221;BME280;63802;53.232;6.570;2023-06-14T05:18:50;101997.63;;;16.08;100.00
75221;BME280;63802;53.232;6.570;2023-06-14T05:21:17;101990.97;;;16.09;100.00
75221;BME280;63802;53.232;6.570;2023-06-14T05:23:44;102002.94;;;16.21;100.00
75221;BME280;63802;53.232;6.570;2023-06-14T05:26:10;101994.44;;;16.33;100.00
75221;BME280;63802;53.232;6.570;2023-06-14T05:28:35;101994.63;;;16.47;100.00
75221;BME280;63802;53.232;6.570;2023-06-14T05:31:01;101997.16;;;16.55;100.00
75221;BME280;63802;53.232;6.570;2023-06-14T05:33:27;102001.25;;;16.68;100.00
75221;BME280;63802;53.232;6.570;2023-06-14T05:35:52;101998.63;;;16.79;100.00
75221;BME280;63802;53.232;6.570;2023-06-14T05:38:17;102002.69;;;16.92;100.00
75221;BME280;63802;53.232;6.570;2023-06-14T05:40:43;102000.03;;;16.99;100.00
75221;BME280;63802;53.232;6.570;2023-06-14T05:43:08;102005.63;;;17.06;100.00
75221;BME280;63802;53.232;6.570;2023-06-14T05:45:34;102001.03;;;17.17;100.00
75221;BME280;63802;53.232;6.570;2023-06-14T05:47:59;102005.09;;;17.30;99.25
75221;BME280;63802;53.232;6.570;2023-06-14T05:50:25;102006.81;;;17.46;98.92
75221;BME280;63802;53.232;6.570;2023-06-14T05:52:51;102015.25;;;17.60;97.25
75221;BME280;63802;53.232;6.570;2023-06-14T05:55:16;102005.88;;;17.68;94.55
75221;BME280;63802;53.232;6.570;2023-06-14T05:57:42;102006.72;;;17.79;93.85
75221;BME280;63802;53.232;6.570;2023-06-14T06:00:08;102006.47;;;17.98;93.37
75221;BME280;63802;53.232;6.570;2023-06-14T06:02:40;102008.97;;;18.14;91.36
75221;BME280;63802;53.232;6.570;2023-06-14T06:05:07;102011.47;;;18.36;89.11
75221;BME280;63802;53.232;6.570;2023-06-14T06:07:33;102010.13;;;18.13;87.62
75221;BME280;63802;53.232;6.570;2023-06-14T06:09:59;102020.13;;;18.31;88.31
75221;BME280;63802;53.232;6.570;2023-06-14T06:12:24;102017.78;;;18.37;88.23
75221;BME280;63802;53.232;6.570;2023-06-14T06:14:50;102022.53;;;18.33;87.18
75221;BME280;63802;53.232;6.570;2023-06-14T06:17:15;102020.16;;;18.38;85.43
75221;BME280;63802;53.232;6.570;2023-06-14T06:19:41;102013.16;;;18.51;84.85
75221;BME280;63802;53.232;6.570;2023-06-14T06:22:06;102013.97;;;18.55;83.16
75221;BME280;63802;53.232;6.570;2023-06-14T06:24:32;102018.47;;;18.92;83.31
75221;BME280;63802;53.232;6.570;2023-06-14T06:26:57;102014.56;;;19.07;81.52
75221;BME280;63802;53.232;6.570;2023-06-14T06:29:22;102026.09;;;19.26;79.15
75221;BME280;63802;53.232;6.570;2023-06-14T06:31:48;102024.50;;;19.25;79.14
75221;BME280;63802;53.232;6.570;2023-06-14T06:34:13;102038.00;;;19.41;77.10
75221;BME280;63802;53.232;6.570;2023-06-14T06:36:38;102034.47;;;19.48;75.65
75221;BME280;63802;53.232;6.570;2023-06-14T06:39:04;102038.84;;;19.70;75.21
75221;BME280;63802;53.232;6.570;2023-06-14T06:41:35;102049.91;;;19.91;74.51
75221;BME280;63802;53.232;6.570;2023-06-14T06:44:02;102049.91;;;19.94;71.53
75221;BME280;63802;53.232;6.570;2023-06-14T06:46:28;102048.31;;;20.11;70.97
75221;BME280;63802;53.232;6.570;2023-06-14T06:48:56;102055.84;;;20.28;69.45
75221;BME280;63802;53.232;6.570;2023-06-14T06:51:21;102061.38;;;20.32;69.76
75221;BME280;63802;53.232;6.570;2023-06-14T06:53:52;102051.47;;;20.31;69.29
75221;BME280;63802;53.232;6.570;2023-06-14T06:56:18;102056.91;;;20.66;69.07
75221;BME280;63802;53.232;6.570;2023-06-14T06:58:45;102064.00;;;20.85;66.15
75221;BME280;63802;53.232;6.570;2023-06-14T07:01:10;102062.47;;;20.66;66.08
75221;BME280;63802;53.232;6.570;2023-06-14T07:03:36;102059.22;;;20.85;67.68
75221;BME280;63802;53.232;6.570;2023-06-14T07:06:02;102055.59;;;21.09;66.40
75221;BME280;63802;53.232;6.570;2023-06-14T07:08:27;102060.91;;;21.48;65.65
75221;BME280;63802;53.232;6.570;2023-06-14T07:10:52;102078.66;;;21.68;63.15
75221;BME280;63802;53.232;6.570;2023-06-14T07:13:18;102067.31;;;22.00;62.83
75221;BME280;63802;53.232;6.570;2023-06-14T07:15:43;102073.94;;;22.13;61.13
75221;BME280;63802;53.232;6.570;2023-06-14T07:18:08;102067.63;;;22.09;59.43
75221;BME280;63802;53.232;6.570;2023-06-14T07:20:34;102073.50;;;22.18;58.08
75221;BME280;63802;53.232;6.570;2023-06-14T07:22:59;102069.47;;;22.26;58.36
75221;BME280;63802;53.232;6.570;2023-06-14T07:25:25;102064.53;;;22.41;56.96
75221;BME280;63802;53.232;6.570;2023-06-14T07:27:51;102077.16;;;22.49;56.80
75221;BME280;63802;53.232;6.570;2023-06-14T07:30:16;102077.81;;;22.67;56.22
75221;BME280;63802;53.232;6.570;2023-06-14T07:32:42;102075.84;;;22.98;54.40
75221;BME280;63802;53.232;6.570;2023-06-14T07:35:07;102078.22;;;23.26;53.04
75221;BME280;63802;53.232;6.570;2023-06-14T07:37:33;102072.75;;;23.49;52.24
75221;BME280;63802;53.232;6.570;2023-06-14T07:39:58;102076.56;;;23.32;50.84
75221;BME280;63802;53.232;6.570;2023-06-14T07:42:23;102087.59;;;23.12;51.75
75221;BME280;63802;53.232;6.570;2023-06-14T07:44:52;102077.78;;;23.31;50.08
75221;BME280;63802;53.232;6.570;2023-06-14T07:47:18;102082.59;;;23.27;49.42
75221;BME280;63802;53.232;6.570;2023-06-14T07:49:44;102079.72;;;23.34;49.35
75221;BME280;63802;53.232;6.570;2023-06-14T07:52:09;102081.31;;;23.35;49.50
75221;BME280;63802;53.232;6.570;2023-06-14T07:54:36;102075.34;;;23.63;48.58
75221;BME280;63802;53.232;6.570;2023-06-14T07:57:02;102080.34;;;23.75;48.52
75221;BME280;63802;53.232;6.570;2023-06-14T07:59:27;102077.28;;;23.66;50.12
75221;BME280;63802;53.232;6.570;2023-06-14T08:01:53;102074.38;;;23.73;49.50
75221;BME280;63802;53.232;6.570;2023-06-14T08:04:18;102075.00;;;23.84;48.63
75221;BME280;63802;53.232;6.570;2023-06-14T08:06:43;102090.34;;;23.96;49.08
75221;BME280;63802;53.232;6.570;2023-06-14T08:09:10;102076.88;;;23.91;48.43
75221;BME280;63802;53.232;6.570;2023-06-14T08:11:36;102083.59;;;23.93;48.94
75221;BME280;63802;53.232;6.570;2023-06-14T08:14:02;102077.06;;;24.04;47.90
75221;BME280;63802;53.232;6.570;2023-06-14T08:16:27;102079.09;;;23.99;47.50
75221;BME280;63802;53.232;6.570;2023-06-14T08:18:53;102078.03;;;24.40;45.52
75221;BME280;63802;53.232;6.570;2023-06-14T08:21:18;102083.63;;;24.17;45.49
75221;BME280;63802;53.232;6.570;2023-06-14T08:23:44;102073.09;;;24.28;46.67
75221;BME280;63802;53.232;6.570;2023-06-14T08:26:10;102080.81;;;24.83;46.79
75221;BME280;63802;53.232;6.570;2023-06-14T08:28:35;102080.59;;;24.93;45.50
75221;BME280;63802;53.232;6.570;2023-06-14T08:31:01;102081.16;;;25.04;43.97
75221;BME280;63802;53.232;6.570;2023-06-14T08:33:27;102072.44;;;25.02;43.13
75221;BME280;63802;53.232;6.570;2023-06-14T08:35:52;102082.63;;;24.70;42.78
75221;BME280;63802;53.232;6.570;2023-06-14T08:38:17;102075.97;;;24.44;43.36
75221;BME280;63802;53.232;6.570;2023-06-14T08:40:45;102078.66;;;24.28;43.24
75221;BME280;63802;53.232;6.570;2023-06-14T08:43:14;102081.72;;;24.56;43.99
75221;BME280;63802;53.232;6.570;2023-06-14T08:45:39;102069.66;;;24.40;43.69
75221;BME280;63802;53.232;6.570;2023-06-14T08:48:06;102073.75;;;24.75;43.20
75221;BME280;63802;53.232;6.570;2023-06-14T08:50:32;102079.31;;;24.78;43.16
75221;BME280;63802;53.232;6.570;2023-06-14T08:53:00;102076.78;;;24.84;43.46
75221;BME280;63802;53.232;6.570;2023-06-14T08:55:30;102069.28;;;25.36;43.49
75221;BME280;63802;53.232;6.570;2023-06-14T08:57:57;102062.72;;;25.78;43.23
75221;BME280;63802;53.232;6.570;2023-06-14T09:00:25;102074.69;;;25.79;41.82
75221;BME280;63802;53.232;6.570;2023-06-14T09:02:51;102066.91;;;25.86;41.50
75221;BME280;63802;53.232;6.570;2023-06-14T09:05:22;102074.41;;;25.21;41.89
75221;BME280;63802;53.232;6.570;2023-06-14T09:07:51;102078.09;;;24.99;43.20
75221;BME280;63802;53.232;6.570;2023-06-14T09:10:18;102080.22;;;25.11;42.65
75221;BME280;63802;53.232;6.570;2023-06-14T09:12:43;102088.53;;;25.14;42.68
75221;BME280;63802;53.232;6.570;2023-06-14T09:15:09;102085.91;;;25.07;42.90
75221;BME280;63802;53.232;6.570;2023-06-14T09:17:35;102085.09;;;25.62;42.54
75221;BME280;63802;53.232;6.570;2023-06-14T09:20:05;102075.38;;;25.67;40.94
75221;BME280;63802;53.232;6.570;2023-06-14T09:22:32;102086.53;;;25.51;40.99
75221;BME280;63802;53.232;6.570;2023-06-14T09:24:58;102074.56;;;25.14;41.87
75221;BME280;63802;53.232;6.570;2023-06-14T09:27:28;102089.94;;;25.22;41.52
75221;BME280;63802;53.232;6.570;2023-06-14T09:29:54;102076.13;;;25.15;42.58
75221;BME280;63802;53.232;6.570;2023-06-14T09:32:20;102087.91;;;24.87;43.12
75221;BME280;63802;53.232;6.570;2023-06-14T09:34:46;102090.84;;;25.00;43.46
75221;BME280;63802;53.232;6.570;2023-06-14T09:37:11;102095.09;;;24.88;42.93
75221;BME280;63802;53.232;6.570;2023-06-14T09:39:52;102091.06;;;24.89;41.80
75221;BME280;63802;53.232;6.570;2023-06-14T09:42:18;102083.47;;;25.09;41.63
75221;BME280;63802;53.232;6.570;2023-06-14T09:44:47;102084.28;;;25.46;41.22
75221;BME280;63802;53.232;6.570;2023-06-14T09:47:13;102079.72;;;24.96;41.42
75221;BME280;63802;53.232;6.570;2023-06-14T09:49:40;102079.81;;;24.93;41.27
75221;BME280;63802;53.232;6.570;2023-06-14T09:52:06;102079.84;;;25.28;41.03
75221;BME280;63802;53.232;6.570;2023-06-14T09:54:36;102087.00;;;25.29;41.03
75221;BME280;63802;53.232;6.570;2023-06-14T09:57:08;102088.31;;;25.05;41.98
75221;BME280;63802;53.232;6.570;2023-06-14T09:59:34;102082.78;;;24.62;42.45
75221;BME280;63802;53.232;6.570;2023-06-14T10:02:07;102089.84;;;24.90;42.31
75221;BME280;63802;53.232;6.570;2023-06-14T10:04:34;102086.88;;;25.17;40.42
75221;BME280;63802;53.232;6.570;2023-06-14T10:07:00;102090.81;;;25.19;40.93
75221;BME280;63802;53.232;6.570;2023-06-14T10:09:28;102081.41;;;25.29;40.70
75221;BME280;63802;53.232;6.570;2023-06-14T10:11:55;102085.59;;;25.57;40.23
75221;BME280;63802;53.232;6.570;2023-06-14T10:14:21;102093.72;;;25.52;39.60
75221;BME280;63802;53.232;6.570;2023-06-14T10:19:34;102076.06;;;25.55;39.66
75221;BME280;63802;53.232;6.570;2023-06-14T10:22:19;102081.94;;;26.25;38.86
75221;BME280;63802;53.232;6.570;2023-06-14T10:24:50;102079.16;;;26.25;37.85
75221;BME280;63802;53.232;6.570;2023-06-14T10:27:16;102080.44;;;26.04;39.15
75221;BME280;63802;53.232;6.570;2023-06-14T10:32:26;102075.50;;;26.40;38.97
75221;BME280;63802;53.232;6.570;2023-06-14T10:34:55;102077.81;;;25.97;39.51
75221;BME280;63802;53.232;6.570;2023-06-14T10:37:21;102079.63;;;26.36;37.95
75221;BME280;63802;53.232;6.570;2023-06-14T10:39:46;102079.41;;;26.14;38.33
75221;BME280;63802;53.232;6.570;2023-06-14T10:42:13;102071.63;;;26.50;37.83
75221;BME280;63802;53.232;6.570;2023-06-14T10:44:42;102083.50;;;26.54;37.17
75221;BME280;63802;53.232;6.570;2023-06-14T10:49:54;102064.56;;;27.16;37.13
75221;BME280;63802;53.232;6.570;2023-06-14T10:52:25;102072.19;;;27.28;36.23
75221;BME280;63802;53.232;6.570;2023-06-14T10:55:14;102073.41;;;27.14;36.65
75221;BME280;63802;53.232;6.570;2023-06-14T10:57:49;102068.03;;;27.33;35.67
75221;BME280;63802;53.232;6.570;2023-06-14T11:00:28;102066.16;;;27.42;35.52
75221;BME280;63802;53.232;6.570;2023-06-14T11:05:52;102052.03;;;26.79;36.51
75221;BME280;63802;53.232;6.570;2023-06-14T11:10:50;102064.38;;;26.82;37.76
75221;BME280;63802;53.232;6.570;2023-06-14T11:13:16;102055.63;;;26.92;37.15
75221;BME280;63802;53.232;6.570;2023-06-14T11:15:46;102062.66;;;27.25;36.44
75221;BME280;63802;53.232;6.570;2023-06-14T11:18:15;102061.03;;;26.71;36.45
75221;BME280;63802;53.232;6.570;2023-06-14T11:20:41;102055.28;;;26.78;36.55
75221;BME280;63802;53.232;6.570;2023-06-14T11:23:07;102045.00;;;26.87;36.74
75221;BME280;63802;53.232;6.570;2023-06-14T11:25:32;102058.09;;;26.90;35.86
75221;BME280;63802;53.232;6.570;2023-06-14T11:27:58;102041.69;;;27.30;35.89
75221;BME280;63802;53.232;6.570;2023-06-14T11:30:26;102026.72;;;27.83;34.94
75221;BME280;63802;53.232;6.570;2023-06-14T11:32:53;102033.56;;;28.51;34.29
75221;BME280;63802;53.232;6.570;2023-06-14T11:35:20;102025.56;;;28.62;35.06
75221;BME280;63802;53.232;6.570;2023-06-14T11:37:48;102038.91;;;28.58;34.07
75221;BME280;63802;53.232;6.570;2023-06-14T11:40:14;102026.78;;;28.05;34.47
75221;BME280;63802;53.232;6.570;2023-06-14T11:42:41;102022.81;;;26.93;34.64
75221;BME280;63802;53.232;6.570;2023-06-14T11:45:11;102017.56;;;26.53;36.25
75221;BME280;63802;53.232;6.570;2023-06-14T11:47:38;102034.84;;;27.18;35.10
75221;BME280;63802;53.232;6.570;2023-06-14T11:50:05;102028.56;;;27.65;35.02
75221;BME280;63802;53.232;6.570;2023-06-14T11:52:32;102024.34;;;27.95;35.19
75221;BME280;63802;53.232;6.570;2023-06-14T11:54:58;102029.22;;;28.16;33.72
75221;BME280;63802;53.232;6.570;2023-06-14T11:57:24;102035.66;;;28.38;33.47
75221;BME280;63802;53.232;6.570;2023-06-14T11:59:51;102020.28;;;27.96;33.16
75221;BME280;63802;53.232;6.570;2023-06-14T12:02:17;102033.34;;;27.14;34.66
75221;BME280;63802;53.232;6.570;2023-06-14T12:04:43;102037.50;;;26.97;34.99
75221;BME280;63802;53.232;6.570;2023-06-14T12:07:14;102024.38;;;26.94;34.38
75221;BME280;63802;53.232;6.570;2023-06-14T12:12:26;102033.25;;;25.74;36.80
75221;BME280;63802;53.232;6.570;2023-06-14T12:14:53;102020.00;;;26.23;35.95
75221;BME280;63802;53.232;6.570;2023-06-14T12:17:18;102028.97;;;26.75;34.68
75221;BME280;63802;53.232;6.570;2023-06-14T12:19:49;102008.94;;;27.27;33.46
75221;BME280;63802;53.232;6.570;2023-06-14T12:22:15;102013.59;;;27.80;33.34
75221;BME280;63802;53.232;6.570;2023-06-14T12:24:44;102019.06;;;28.31;32.68
75221;BME280;63802;53.232;6.570;2023-06-14T12:27:10;102014.44;;;28.80;31.67
75221;BME280;63802;53.232;6.570;2023-06-14T12:29:43;102018.81;;;28.81;32.17
75221;BME280;63802;53.232;6.570;2023-06-14T12:32:09;102014.41;;;28.58;32.17
75221;BME280;63802;53.232;6.570;2023-06-14T12:34:35;102015.91;;;28.07;32.16
75221;BME280;63802;53.232;6.570;2023-06-14T12:37:01;102033.44;;;28.33;32.87
75221;BME280;63802;53.232;6.570;2023-06-14T12:39:28;102016.34;;;27.93;32.95
75221;BME280;63802;53.232;6.570;2023-06-14T12:41:55;102017.22;;;27.68;33.32
75221;BME280;63802;53.232;6.570;2023-06-14T12:44:20;102015.97;;;27.69;33.23
75221;BME280;63802;53.232;6.570;2023-06-14T12:46:46;102013.06;;;27.73;33.61
75221;BME280;63802;53.232;6.570;2023-06-14T12:49:12;102027.66;;;27.55;33.51
75221;BME280;63802;53.232;6.570;2023-06-14T12:51:38;102027.00;;;28.11;32.63
75221;BME280;63802;53.232;6.570;2023-06-14T12:54:05;102022.09;;;27.89;32.49
75221;BME280;63802;53.232;6.570;2023-06-14T12:56:31;102017.22;;;28.15;32.23
75221;BME280;63802;53.232;6.570;2023-06-14T12:58:56;102018.03;;;28.37;31.80
75221;BME280;63802;53.232;6.570;2023-06-14T13:01:21;102025.88;;;28.64;31.39
75221;BME280;63802;53.232;6.570;2023-06-14T13:03:47;102013.19;;;28.81;31.67